KSWO/SWO METAR and TAF weather

Enter ICAO airport designator
Station Type Date Time Source
KSWO METAR 2021/05/14 06:53 UTC NOAA

KSWO 140653Z AUTO 16005KT 10SM CLR 12/08 A3022 RMK AO2 SLP227 T01220078


Station Type Date Time Source
KSWO Decoded METAR 2021/05/14 06:53 UTC NOAA

STILLWATER REGIONAL AIRPORT, OK, United States (KSWO) 36-10N 97-05W 290M
May 14, 2021 - 02:53 AM EDT / 2021.05.14 0653 UTC
Wind: from the SSE (160 degrees) at 6 MPH (5 KT):0
Visibility: 10 mile(s):0
Sky conditions: clear
Temperature: 54.0 F (12.2 C)
Dew Point: 46.0 F (7.8 C)
Relative Humidity: 74%
Pressure (altimeter): 30.22 in. Hg (1023 hPa)
ob: KSWO 140653Z AUTO 16005KT 10SM CLR 12/08 A3022 RMK AO2 SLP227 T01220078
cycle: 7

Station Type Date Time Source
KSWO TAF 2021/05/14 06:21 UTC NOAA

TAF KSWO 140520Z 1406/1506 13008KT P6SM SCT250
FM141500 17014G21KT P6SM SCT050 BKN250
FM150000 15012KT P6SM BKN250

Example: see airport list